Tarnow, Poland
Current Conditions -  °F | °C
As of 6:30 PM on Monday 24 Nov 2014 (Local Time) from EPRZ Reporting Station
Clear Clear  
Wind Chill: 22°   Ceiling: Unl
Heat Index: 32°   Visibility: 6mi
Dew Point: 30°   Wind: 14mph
Humidity: 93%   Direction: 120°ESE
Pressure: 30.33"   Gusts: NA
Location:  50.01°N, 20.99°E
Report Text: EPRZ 241630Z 12012KT CAVOK 00/M01 Q1027
Loading
Personal Weather Stations






























Interactive Weather Map New forecast layout! Learn more

10-Day Weather Forecast

Advertisements
Track Severe Weather on mobile